Time,TemperatureF,DewpointF,PressureIn,WindDirection,WindDirectionDegrees,WindSpeedMPH,WindSpeedGustMPH,Humidity,HourlyPrecipIn,Conditions,Clouds,dailyrainin,SoftwareType,DateUTC
2013-02-23 00:12:00,58.0,57.0,30.05,SE,136,3.0,4.0,96,-99.99,,,-99.99,,2013-02-23 05:12:00,
2013-02-23 00:23:00,58.0,57.0,30.05,SE,136,3.0,4.0,96,-99.99,,,-99.99,,2013-02-23 05:23:00,
2013-02-23 00:33:00,58.0,57.0,30.05,ESE,123,3.0,4.0,97,-99.99,,,-99.99,,2013-02-23 05:33:00,
2013-02-23 00:52:00,59.0,58.0,30.04,ESE,108,1.0,3.0,97,-99.99,,,-99.99,,2013-02-23 05:52:00,
2013-02-23 01:11:00,58.0,58.0,30.04,WSW,242,1.0,2.0,97,-99.99,,,-99.99,,2013-02-23 06:11:00,
2013-02-23 01:23:00,58.0,58.0,30.04,WSW,242,1.0,2.0,97,-99.99,,,-99.99,,2013-02-23 06:23:00,
2013-02-23 01:32:00,58.0,57.0,30.03,WNW,288,1.0,1.0,97,-99.99,,,-99.99,,2013-02-23 06:32:00,
2013-02-23 01:52:00,57.0,56.0,30.03,SSE,159,1.0,1.0,97,-99.99,,,-99.99,,2013-02-23 06:52:00,
2013-02-23 02:11:00,57.0,56.0,30.03,South,177,1.0,1.0,97,-99.99,,,-99.99,,2013-02-23 07:11:00,
2013-02-23 02:21:00,57.0,56.0,30.03,South,177,1.0,1.0,97,-99.99,,,-99.99,,2013-02-23 07:21:00,
2013-02-23 02:32:00,57.0,56.0,30.02,SSE,166,2.0,3.0,97,-99.99,,,-99.99,,2013-02-23 07:32:00,
2013-02-23 02:52:00,58.0,57.0,30.01,SSE,156,3.0,3.0,98,-99.99,,,-99.99,,2013-02-23 07:52:00,
2013-02-23 03:11:00,59.0,58.0,30.00,SSE,168,2.0,3.0,98,-99.99,,,-99.99,,2013-02-23 08:11:00,
2013-02-23 03:21:00,59.0,58.0,30.00,SSE,168,2.0,3.0,98,-99.99,,,-99.99,,2013-02-23 08:21:00,
2013-02-23 03:32:00,61.0,61.0,30.00,SSE,157,2.0,3.0,98,-99.99,,,-99.99,,2013-02-23 08:32:00,
2013-02-23 03:42:00,61.0,61.0,30.00,SSE,157,2.0,3.0,98,-99.99,,,-99.99,,2013-02-23 08:42:00,
2013-02-23 03:53:00,64.0,63.0,30.00,SE,138,2.0,3.0,98,-99.99,,,-99.99,,2013-02-23 08:53:00,
2013-02-23 04:02:00,64.0,63.0,30.00,SE,138,2.0,3.0,98,-99.99,,,-99.99,,2013-02-23 09:02:00,
2013-02-23 04:11:00,65.0,64.0,29.99,SE,144,2.0,4.0,98,-99.99,,,-99.99,,2013-02-23 09:11:00,
2013-02-23 04:22:00,65.0,64.0,29.99,SE,144,2.0,4.0,98,-99.99,,,-99.99,,2013-02-23 09:22:00,
2013-02-23 04:32:00,66.0,65.0,29.99,SE,134,3.0,5.0,98,-99.99,,,-99.99,,2013-02-23 09:32:00,
2013-02-23 04:42:00,66.0,65.0,29.99,SE,134,3.0,5.0,98,-99.99,,,-99.99,,2013-02-23 09:42:00,
2013-02-23 04:52:00,67.0,67.0,29.99,SSE,154,4.0,7.0,98,-99.99,,,-99.99,,2013-02-23 09:52:00,
2013-02-23 05:01:00,67.0,67.0,29.99,SSE,154,4.0,7.0,98,-99.99,,,-99.99,,2013-02-23 10:01:00,
2013-02-23 05:11:00,67.0,67.0,29.99,SSE,154,4.0,6.0,98,-99.99,,,-99.99,,2013-02-23 10:11:00,
2013-02-23 05:21:00,67.0,67.0,29.99,SSE,154,4.0,6.0,98,-99.99,,,-99.99,,2013-02-23 10:21:00,
2013-02-23 05:32:00,67.0,67.0,29.99,SSE,148,3.0,6.0,98,-99.99,,,-99.99,,2013-02-23 10:32:00,
2013-02-23 05:42:00,67.0,67.0,29.99,SSE,148,3.0,6.0,98,-99.99,,,-99.99,,2013-02-23 10:42:00,
2013-02-23 05:52:00,67.0,66.0,29.99,SE,143,3.0,5.0,98,-99.99,,,-99.99,,2013-02-23 10:52:00,
2013-02-23 06:02:00,67.0,66.0,29.99,SE,143,3.0,5.0,98,-99.99,,,-99.99,,2013-02-23 11:02:00,
2013-02-23 06:11:00,67.0,66.0,29.99,SE,124,3.0,5.0,98,-99.99,,,-99.99,,2013-02-23 11:11:00,
2013-02-23 06:22:00,67.0,66.0,29.99,SE,124,3.0,5.0,98,-99.99,,,-99.99,,2013-02-23 11:22:00,
2013-02-23 06:30:00,66.0,66.0,30.00,ESE,117,3.0,5.0,98,-99.99,,,-99.99,,2013-02-23 11:30:00,
2013-02-23 06:32:00,66.0,66.0,29.99,ESE,120,2.0,4.0,98,-99.99,,,-99.99,,2013-02-23 11:32:00,
2013-02-23 06:42:00,66.0,66.0,29.99,ESE,120,2.0,4.0,98,-99.99,,,-99.99,,2013-02-23 11:42:00,
2013-02-23 06:53:00,66.0,66.0,30.00,ESE,117,3.0,5.0,98,-99.99,,,-99.99,,2013-02-23 11:53:00,
2013-02-23 07:02:00,66.0,66.0,30.00,ESE,117,3.0,5.0,98,-99.99,,,-99.99,,2013-02-23 12:02:00,
2013-02-23 07:11:00,66.0,66.0,30.00,ESE,117,3.0,5.0,98,-99.99,,,-99.99,,2013-02-23 12:11:00,
2013-02-23 07:22:00,66.0,66.0,30.00,ESE,117,3.0,5.0,98,-99.99,,,-99.99,,2013-02-23 12:22:00,
2013-02-23 17:22:00,81.0,71.0,29.94,SSW,194,9.0,17.0,71,-99.99,,,-99.99,,2013-02-23 22:22:00,
2013-02-23 17:32:00,80.0,71.0,29.93,SSW,205,7.0,14.0,74,-99.99,,,-99.99,,2013-02-23 22:32:00,
2013-02-23 17:42:00,80.0,71.0,29.93,SSW,205,7.0,14.0,74,-99.99,,,-99.99,,2013-02-23 22:42:00,
2013-02-23 17:52:00,77.0,70.0,29.93,SSW,196,8.0,14.0,78,-99.99,,,-99.99,,2013-02-23 22:52:00,
2013-02-23 18:01:00,77.0,70.0,29.93,SSW,196,8.0,14.0,78,-99.99,,,-99.99,,2013-02-23 23:01:00,
2013-02-23 18:11:00,77.0,71.0,29.93,SSW,199,8.0,12.0,80,-99.99,,,-99.99,,2013-02-23 23:11:00,
2013-02-23 18:22:00,77.0,71.0,29.93,SSW,199,8.0,12.0,80,-99.99,,,-99.99,,2013-02-23 23:22:00,
2013-02-23 18:32:00,76.0,71.0,29.94,SSW,207,5.0,11.0,84,-99.99,,,-99.99,,2013-02-23 23:32:00,
2013-02-23 18:42:00,76.0,71.0,29.94,SSW,207,5.0,11.0,84,-99.99,,,-99.99,,2013-02-23 23:42:00,
2013-02-23 18:52:00,75.0,71.0,29.95,SSW,211,5.0,10.0,86,-99.99,,,-99.99,,2013-02-23 23:52:00,
2013-02-23 19:02:00,75.0,71.0,29.95,SSW,211,5.0,10.0,86,-99.99,,,-99.99,,2013-02-24 00:02:00,
2013-02-23 19:11:00,74.0,70.0,29.95,SSW,207,5.0,9.0,87,-99.99,,,-99.99,,2013-02-24 00:11:00,
2013-02-23 19:22:00,74.0,70.0,29.95,SSW,207,5.0,9.0,87,-99.99,,,-99.99,,2013-02-24 00:22:00,
2013-02-23 19:32:00,72.0,69.0,29.95,SSW,204,3.0,6.0,90,-99.99,,,-99.99,,2013-02-24 00:32:00,
2013-02-23 19:42:00,72.0,69.0,29.95,SSW,204,3.0,6.0,90,-99.99,,,-99.99,,2013-02-24 00:42:00,
2013-02-23 19:52:00,72.0,69.0,29.96,SSW,207,3.0,4.0,92,-99.99,,,-99.99,,2013-02-24 00:52:00,
2013-02-23 20:01:00,72.0,69.0,29.96,SSW,207,3.0,4.0,92,-99.99,,,-99.99,,2013-02-24 01:01:00,
2013-02-23 20:11:00,71.0,69.0,29.96,SSW,211,2.0,4.0,94,-99.99,,,-99.99,,2013-02-24 01:11:00,
2013-02-23 20:22:00,71.0,69.0,29.96,SSW,211,2.0,4.0,94,-99.99,,,-99.99,,2013-02-24 01:22:00,
2013-02-23 20:32:00,67.0,66.0,29.96,SW,221,1.0,2.0,94,-99.99,,,-99.99,,2013-02-24 01:32:00,
2013-02-23 20:42:00,67.0,66.0,29.96,SW,221,1.0,2.0,94,-99.99,,,-99.99,,2013-02-24 01:42:00,
2013-02-23 20:52:00,66.0,64.0,29.97,SW,233,1.0,1.0,95,-99.99,,,-99.99,,2013-02-24 01:52:00,
2013-02-23 21:01:00,66.0,64.0,29.97,SW,233,1.0,1.0,95,-99.99,,,-99.99,,2013-02-24 02:01:00,
2013-02-23 21:11:00,65.0,63.0,29.97,WNW,291,0.0,1.0,95,-99.99,,,-99.99,,2013-02-24 02:11:00,
2013-02-23 21:22:00,65.0,63.0,29.97,WNW,291,0.0,1.0,95,-99.99,,,-99.99,,2013-02-24 02:22:00,
2013-02-23 21:32:00,63.0,62.0,29.97,South,180,0.0,1.0,96,-99.99,,,-99.99,,2013-02-24 02:32:00,
2013-02-23 21:52:00,62.0,61.0,29.98,WSW,256,1.0,1.0,96,-99.99,,,-99.99,,2013-02-24 02:52:00,
2013-02-23 22:02:00,62.0,61.0,29.98,WSW,256,1.0,1.0,96,-99.99,,,-99.99,,2013-02-24 03:02:00,
2013-02-23 22:11:00,61.0,61.0,29.98,South,170,1.0,1.0,97,-99.99,,,-99.99,,2013-02-24 03:11:00,
2013-02-23 22:22:00,61.0,61.0,29.98,South,170,1.0,1.0,97,-99.99,,,-99.99,,2013-02-24 03:22:00,
2013-02-23 22:32:00,61.0,61.0,29.98,WNW,300,1.0,1.0,97,-99.99,,,-99.99,,2013-02-24 03:32:00,
2013-02-23 22:52:00,61.0,61.0,29.99,SW,217,0.0,1.0,97,-99.99,,,-99.99,,2013-02-24 03:52:00,
2013-02-23 23:02:00,61.0,61.0,29.99,SW,217,0.0,1.0,97,-99.99,,,-99.99,,2013-02-24 04:02:00,
2013-02-23 23:11:00,62.0,61.0,29.99,SE,124,0.0,1.0,97,-99.99,,,-99.99,,2013-02-24 04:11:00,
2013-02-23 23:22:00,62.0,61.0,29.99,SE,124,0.0,1.0,97,-99.99,,,-99.99,,2013-02-24 04:22:00,
2013-02-23 23:32:00,62.0,62.0,29.99,SSW,197,0.0,1.0,98,-99.99,,,-99.99,,2013-02-24 04:32:00,
2013-02-23 23:42:00,62.0,62.0,29.99,SSW,197,0.0,1.0,98,-99.99,,,-99.99,,2013-02-24 04:42:00,
2013-02-23 23:52:00,63.0,62.0,29.99,SE,131,1.0,1.0,98,-99.99,,,-99.99,,2013-02-24 04:52:00,